Time;durP1;ratioP1;P1;durP2;ratioP2;P2;SDS_P1;SDS_P2;PMS_P1;PMS_P2;Temp;Humidity;BMP_temperature;BMP_pressure;BME280_temperature;BME280_humidity;BME280_pressure;Samples;Min_cycle;Max_cycle;Signal;HPM_P1;HPM_P2
2023/08/19 00:01:15;;;;;;;7.15;5.50;;;;;;;22.72;100.00;100684.53;5055476;28;20032;-62
2023/08/19 00:03:40;;;;;;;8.75;5.78;;;;;;;22.76;100.00;100691.84;5049428;28;20025;-63
2023/08/19 00:06:09;;;;;;;7.85;5.85;;;;;;;22.74;100.00;100688.59;5052956;28;20095;-61
2023/08/19 00:08:35;;;;;;;8.40;5.78;;;;;;;22.73;100.00;100689.63;5049035;28;20052;-62
2023/08/19 00:11:02;;;;;;;7.10;5.85;;;;;;;22.74;100.00;100683.28;5052040;28;20036;-62
2023/08/19 00:13:28;;;;;;;5.88;5.28;;;;;;;22.80;99.94;100684.28;5054044;28;20421;-61
2023/08/19 00:15:53;;;;;;;7.32;5.07;;;;;;;22.82;99.50;100683.03;5050169;28;20060;-62
2023/08/19 00:18:19;;;;;;;8.90;5.70;;;;;;;22.82;99.34;100677.72;5052091;28;20060;-61
2023/08/19 00:20:44;;;;;;;6.20;5.63;;;;;;;22.84;98.96;100678.31;5049496;28;20035;-62
2023/08/19 00:23:10;;;;;;;5.75;5.22;;;;;;;22.89;98.53;100684.81;5047369;28;20099;-61
2023/08/19 00:25:36;;;;;;;6.88;5.45;;;;;;;22.96;98.25;100677.59;5038427;28;20090;-61
2023/08/19 00:28:04;;;;;;;5.30;4.90;;;;;;;23.04;97.15;100677.31;5044697;28;20842;-62
2023/08/19 00:30:29;;;;;;;6.13;5.45;;;;;;;23.04;96.93;100679.97;5055697;28;20028;-61
2023/08/19 00:32:55;;;;;;;6.07;4.95;;;;;;;23.00;96.89;100679.59;5052344;28;20419;-62
2023/08/19 00:35:21;;;;;;;5.97;4.97;;;;;;;23.00;97.05;100689.41;5051317;28;20063;-62
2023/08/19 00:37:47;;;;;;;6.20;5.57;;;;;;;22.92;97.59;100682.53;5046376;28;20030;-61
2023/08/19 00:40:14;;;;;;;5.93;5.32;;;;;;;22.88;97.54;100675.22;5055662;28;20139;-62
2023/08/19 00:42:40;;;;;;;6.50;5.78;;;;;;;22.81;98.49;100684.06;5057366;28;20484;-61
2023/08/19 00:45:06;;;;;;;8.00;5.78;;;;;;;22.73;99.14;100679.00;5050028;28;20067;-62
2023/08/19 00:47:32;;;;;;;8.90;5.82;;;;;;;22.67;99.73;100673.78;5055288;28;20036;-62
2023/08/19 00:49:57;;;;;;;6.40;5.72;;;;;;;22.55;100.00;100678.97;5053387;28;20025;-61
2023/08/19 00:52:23;;;;;;;5.70;5.20;;;;;;;22.50;100.00;100676.16;5050313;28;20484;-62
2023/08/19 00:54:50;;;;;;;7.47;5.68;;;;;;;22.44;100.00;100679.69;5046574;28;20096;-61
2023/08/19 00:57:16;;;;;;;6.32;5.70;;;;;;;22.42;100.00;100676.44;5051827;28;20028;-61
2023/08/19 00:59:42;;;;;;;8.02;6.07;;;;;;;22.41;100.00;100680.94;5053141;28;20033;-61
2023/08/19 01:02:07;;;;;;;10.73;4.97;;;;;;;22.42;100.00;100682.56;5051553;28;20036;-61
2023/08/19 01:04:33;;;;;;;6.45;5.45;;;;;;;22.41;100.00;100674.81;5045076;28;20033;-61
2023/08/19 01:07:11;;;;;;;9.32;5.78;;;;;;;22.43;100.00;100670.09;5054977;28;20032;-61
2023/08/19 01:09:42;;;;;;;7.95;6.30;;;;;;;22.47;100.00;100671.28;5053403;28;20040;-62
2023/08/19 01:12:38;;;;;;;9.27;5.70;;;;;;;22.51;100.00;100669.81;5056963;28;20032;-64
2023/08/19 01:15:14;;;;;;;7.70;5.73;;;;;;;22.59;99.46;100666.91;5049732;28;20463;-62
2023/08/19 01:17:41;;;;;;;7.82;5.55;;;;;;;22.60;99.38;100663.22;5056776;28;20380;-61
2023/08/19 01:20:09;;;;;;;8.82;5.68;;;;;;;22.57;99.32;100663.66;5050822;28;20090;-62
2023/08/19 01:23:03;;;;;;;9.13;5.85;;;;;;;22.55;99.15;100660.38;5048507;28;20396;-61
2023/08/19 01:25:30;;;;;;;6.10;5.60;;;;;;;22.50;99.40;100658.38;5042663;28;20025;-61
2023/08/19 01:27:56;;;;;;;7.25;5.30;;;;;;;22.56;99.20;100659.38;5047760;28;20436;-62
2023/08/19 01:30:22;;;;;;;11.40;5.47;;;;;;;22.55;99.15;100655.09;5047843;28;20037;-62
2023/08/19 01:32:47;;;;;;;6.13;5.57;;;;;;;22.60;98.52;100657.09;5051864;28;20456;-62
2023/08/19 01:35:15;;;;;;;6.15;5.10;;;;;;;22.59;98.26;100652.81;5049885;28;20084;-61
2023/08/19 01:38:17;;;;;;;8.85;5.72;;;;;;;22.47;98.70;100658.81;5057083;28;20115;-62
2023/08/19 01:40:43;;;;;;;6.07;5.28;;;;;;;22.45;98.92;100654.75;5048315;28;20028;-61
2023/08/19 01:43:11;;;;;;;5.28;4.53;;;;;;;22.50;98.34;100652.25;5044699;28;20056;-62
2023/08/19 01:45:38;;;;;;;5.53;5.03;;;;;;;22.57;98.01;100655.69;5052716;28;20095;-62
2023/08/19 01:48:04;;;;;;;5.28;4.78;;;;;;;22.58;97.64;100652.00;5050493;28;20111;-61
2023/08/19 01:50:29;;;;;;;5.75;5.15;;;;;;;22.59;96.73;100650.97;5048949;28;20107;-62
2023/08/19 01:52:55;;;;;;;6.90;5.25;;;;;;;22.55;97.21;100647.13;5051023;28;20036;-61
2023/08/19 01:55:21;;;;;;;6.78;5.70;;;;;;;22.36;97.62;100645.44;5048533;28;20510;-62
2023/08/19 01:57:46;;;;;;;5.78;5.28;;;;;;;22.20;98.40;100648.66;5052732;28;20079;-61
2023/08/19 02:00:12;;;;;;;10.25;5.35;;;;;;;22.13;99.00;100644.22;5047485;28;20496;-61
2023/08/19 02:02:37;;;;;;;5.78;4.80;;;;;;;22.13;99.42;100651.34;5048932;28;20117;-61
2023/08/19 02:05:03;;;;;;;6.70;5.35;;;;;;;22.06;100.00;100658.53;5050492;28;20033;-61
2023/08/19 02:07:28;;;;;;;7.72;5.18;;;;;;;21.93;100.00;100656.75;5048624;28;20116;-61
2023/08/19 02:09:54;;;;;;;6.47;5.38;;;;;;;21.82;100.00;100663.56;5053515;28;20021;-62
2023/08/19 02:12:19;;;;;;;8.43;5.40;;;;;;;21.69;100.00;100660.19;5044663;28;20032;-62
2023/08/19 02:14:45;;;;;;;7.82;5.75;;;;;;;21.60;100.00;100656.97;5046452;28;20041;-62
2023/08/19 02:17:10;;;;;;;7.50;5.88;;;;;;;21.55;100.00;100655.97;5045093;28;20033;-62
2023/08/19 02:19:36;;;;;;;7.45;5.50;;;;;;;21.53;100.00;100656.19;5046883;28;20083;-62
2023/08/19 02:22:02;;;;;;;6.43;5.03;;;;;;;21.50;100.00;100662.72;5051379;28;20029;-61
2023/08/19 02:24:28;;;;;;;6.10;5.53;;;;;;;21.51;100.00;100651.09;5042278;28;20044;-62
2023/08/19 02:26:53;;;;;;;5.82;5.18;;;;;;;21.54;100.00;100663.09;5045867;28;20021;-61
2023/08/19 02:29:19;;;;;;;5.90;5.30;;;;;;;21.54;100.00;100657.81;5051839;28;20023;-62
2023/08/19 02:31:46;;;;;;;6.47;5.07;;;;;;;21.48;100.00;100658.66;5046539;28;20033;-61
2023/08/19 02:34:11;;;;;;;6.15;5.65;;;;;;;21.42;100.00;100660.31;5048172;28;20405;-61
2023/08/19 02:36:37;;;;;;;6.88;5.78;;;;;;;21.37;100.00;100656.66;5044908;28;20072;-61
2023/08/19 02:39:02;;;;;;;6.80;5.30;;;;;;;21.34;100.00;100659.72;5046102;28;20040;-61
2023/08/19 02:41:27;;;;;;;7.13;5.90;;;;;;;21.30;100.00;100654.03;5047993;28;20055;-62
2023/08/19 02:43:53;;;;;;;6.22;5.25;;;;;;;21.26;100.00;100660.78;5047495;28;20051;-62
2023/08/19 02:46:18;;;;;;;6.03;5.50;;;;;;;21.20;100.00;100656.31;5040002;28;20029;-61
2023/08/19 02:48:44;;;;;;;6.13;5.53;;;;;;;21.16;100.00;100657.75;5043369;28;20036;-61
2023/08/19 02:51:09;;;;;;;10.18;5.93;;;;;;;21.13;100.00;100666.91;5043940;28;20028;-61
2023/08/19 02:53:35;;;;;;;9.68;5.55;;;;;;;21.24;100.00;100662.03;5045824;28;20038;-62
2023/08/19 02:56:05;;;;;;;6.60;6.00;;;;;;;21.33;100.00;100663.41;5048074;28;20033;-62
2023/08/19 02:58:30;;;;;;;6.43;5.63;;;;;;;21.30;100.00;100674.41;5047655;28;20086;-61
2023/08/19 03:00:56;;;;;;;6.50;5.72;;;;;;;21.24;100.00;100662.84;5043429;28;20032;-61
2023/08/19 03:03:21;;;;;;;6.47;5.72;;;;;;;21.22;100.00;100664.88;5043095;28;20111;-61
2023/08/19 03:05:47;;;;;;;7.25;6.35;;;;;;;21.26;100.00;100658.16;5044040;28;20033;-62
2023/08/19 03:08:12;;;;;;;8.23;6.38;;;;;;;21.29;100.00;100660.34;5041308;28;20025;-61
2023/08/19 03:10:40;;;;;;;5.72;5.22;;;;;;;21.28;100.00;100658.72;5050164;28;20128;-62
2023/08/19 03:13:07;;;;;;;6.32;5.82;;;;;;;21.37;100.00;100654.00;5042113;28;20040;-62
2023/08/19 03:15:35;;;;;;;6.57;5.50;;;;;;;21.44;100.00;100655.59;5044109;28;20061;-61
2023/08/19 03:18:00;;;;;;;6.53;5.75;;;;;;;21.51;100.00;100659.03;5045446;28;20029;-61
2023/08/19 03:20:27;;;;;;;7.22;5.50;;;;;;;21.56;100.00;100653.09;5054334;28;20025;-61
2023/08/19 03:22:52;;;;;;;7.05;4.70;;;;;;;21.60;100.00;100649.00;5052210;28;20044;-62
2023/08/19 03:25:18;;;;;;;6.20;5.40;;;;;;;21.60;100.00;100659.63;5049536;28;20033;-61
2023/08/19 03:27:43;;;;;;;6.70;5.30;;;;;;;21.67;100.00;100651.63;5045452;28;20041;-61
2023/08/19 03:30:09;;;;;;;5.80;5.25;;;;;;;21.66;100.00;100652.66;5046125;28;20028;-61
2023/08/19 03:32:34;;;;;;;7.05;5.30;;;;;;;21.62;100.00;100654.91;5046545;28;20021;-61
2023/08/19 03:35:00;;;;;;;6.32;5.72;;;;;;;21.55;100.00;100658.63;5051571;28;20121;-62
2023/08/19 03:37:26;;;;;;;6.30;5.40;;;;;;;21.47;100.00;100662.31;5055830;28;20028;-61
2023/08/19 03:39:51;;;;;;;9.55;5.25;;;;;;;21.44;100.00;100668.84;5051657;28;20436;-61
2023/08/19 03:42:17;;;;;;;6.28;5.53;;;;;;;21.41;100.00;100663.97;5049067;28;20467;-62
2023/08/19 03:44:42;;;;;;;4.72;4.32;;;;;;;21.41;100.00;100668.47;5044765;28;20108;-62
2023/08/19 03:47:12;;;;;;;5.72;5.20;;;;;;;21.47;100.00;100667.63;5052259;28;20102;-61
2023/08/19 03:49:38;;;;;;;9.80;5.78;;;;;;;21.47;100.00;100672.94;5049003;28;20025;-61
2023/08/19 03:52:07;;;;;;;5.35;4.85;;;;;;;21.46;100.00;100673.94;5053186;28;20043;-61
2023/08/19 03:54:33;;;;;;;6.40;5.80;;;;;;;21.43;100.00;100672.53;5052459;28;20082;-61
2023/08/19 03:56:59;;;;;;;7.10;5.50;;;;;;;21.39;100.00;100676.63;5054784;28;20028;-61
2023/08/19 03:59:24;;;;;;;6.78;5.43;;;;;;;21.33;100.00;100674.00;5053008;28;20029;-61
2023/08/19 04:01:49;;;;;;;8.25;5.57;;;;;;;21.26;100.00;100671.41;5054141;28;20130;-62
2023/08/19 04:04:15;;;;;;;6.13;5.47;;;;;;;21.25;100.00;100679.56;5054928;28;20033;-62
2023/08/19 04:06:40;;;;;;;6.43;5.78;;;;;;;21.26;100.00;100676.69;5058548;28;20035;-61
2023/08/19 04:09:07;;;;;;;6.47;5.20;;;;;;;21.26;100.00;100671.41;5050057;28;20783;-61
2023/08/19 04:11:32;;;;;;;9.73;5.40;;;;;;;21.27;100.00;100680.16;5046956;28;20069;-62
2023/08/19 04:13:58;;;;;;;5.65;5.13;;;;;;;21.25;100.00;100679.56;5051168;28;20548;-61
2023/08/19 04:16:24;;;;;;;6.88;6.28;;;;;;;21.26;100.00;100676.69;5049665;28;20047;-61
2023/08/19 04:18:50;;;;;;;5.63;5.13;;;;;;;21.27;100.00;100682.81;5053800;28;20044;-62
2023/08/19 04:21:16;;;;;;;6.72;6.05;;;;;;;21.23;100.00;100679.75;5056479;28;20028;-61
2023/08/19 04:23:42;;;;;;;6.57;5.63;;;;;;;21.19;100.00;100681.97;5048974;28;20040;-61
2023/08/19 04:26:07;;;;;;;5.97;5.20;;;;;;;21.23;100.00;100673.66;5049580;28;20025;-61
2023/08/19 04:28:32;;;;;;;8.95;5.40;;;;;;;21.30;100.00;100685.81;5049840;28;20453;-61
2023/08/19 04:31:07;;;;;;;8.80;5.88;;;;;;;21.31;100.00;100686.63;5052242;28;20037;-61
2023/08/19 04:33:33;;;;;;;7.50;6.17;;;;;;;21.34;100.00;100691.53;5055639;28;20036;-61
2023/08/19 04:35:59;;;;;;;7.13;5.05;;;;;;;21.33;100.00;100689.91;5053000;28;20786;-62
2023/08/19 04:38:25;;;;;;;6.07;5.47;;;;;;;21.31;100.00;100686.63;5056956;28;20064;-61
2023/08/19 04:40:51;;;;;;;5.82;5.25;;;;;;;21.27;100.00;100674.84;5054602;28;20498;-62
2023/08/19 04:43:18;;;;;;;6.00;5.32;;;;;;;21.24;100.00;100684.03;5047702;28;20029;-61
2023/08/19 04:45:44;;;;;;;7.10;5.35;;;;;;;21.26;100.00;100689.13;5053270;28;20115;-61
2023/08/19 04:48:09;;;;;;;7.60;5.20;;;;;;;21.25;100.00;100690.97;5049139;28;20033;-61
2023/08/19 04:50:35;;;;;;;8.32;5.97;;;;;;;21.29;100.00;100686.84;5048762;28;20121;-62
2023/08/19 04:53:00;;;;;;;6.68;6.05;;;;;;;21.35;100.00;100693.97;5046780;28;20036;-61
2023/08/19 04:55:27;;;;;;;8.80;5.68;;;;;;;21.35;100.00;100698.44;5049709;28;20033;-62
2023/08/19 04:57:52;;;;;;;6.45;5.45;;;;;;;21.36;100.00;100692.94;5041404;28;20572;-62
2023/08/19 05:00:18;;;;;;;6.70;5.03;;;;;;;21.44;100.00;100699.84;5045800;28;20029;-62
2023/08/19 05:02:43;;;;;;;6.38;5.40;;;;;;;21.46;100.00;100698.63;5049988;28;20025;-62
2023/08/19 05:05:09;;;;;;;6.47;5.88;;;;;;;21.55;100.00;100698.38;5049274;28;20033;-61
2023/08/19 05:07:34;;;;;;;7.10;4.82;;;;;;;21.62;100.00;100696.53;5052032;28;20036;-62
2023/08/19 05:10:00;;;;;;;8.88;5.90;;;;;;;21.66;100.00;100692.44;5053268;28;20381;-62
2023/08/19 05:12:25;;;;;;;6.07;5.53;;;;;;;21.68;100.00;100693.84;5043443;28;20151;-62
2023/08/19 05:14:51;;;;;;;6.30;4.63;;;;;;;21.65;100.00;100696.91;5051130;28;20032;-62
2023/08/19 05:17:18;;;;;;;8.20;5.35;;;;;;;21.63;100.00;100693.66;5042678;28;20041;-62
2023/08/19 05:19:43;;;;;;;6.78;5.70;;;;;;;21.58;100.00;100700.63;5051501;28;20032;-62
2023/08/19 05:22:09;;;;;;;7.97;5.10;;;;;;;21.55;100.00;100698.38;5053689;28;20025;-62
2023/08/19 05:24:34;;;;;;;9.68;5.72;;;;;;;21.59;100.00;100694.28;5049755;28;20485;-62
2023/08/19 05:27:00;;;;;;;6.07;5.50;;;;;;;21.68;100.00;100695.69;5042690;28;20049;-62
2023/08/19 05:29:25;;;;;;;5.38;4.85;;;;;;;21.80;100.00;100694.78;5044891;28;20108;-63
2023/08/19 05:31:51;;;;;;;6.47;4.90;;;;;;;21.83;100.00;100699.66;5032476;28;20036;-62
2023/08/19 05:34:16;;;;;;;5.57;5.07;;;;;;;21.88;100.00;100695.56;5048344;28;20028;-65
2023/08/19 05:36:42;;;;;;;6.85;5.28;;;;;;;21.96;100.00;100692.66;5044880;28;20379;-65
2023/08/19 05:39:07;;;;;;;5.10;4.70;;;;;;;22.04;100.00;100697.75;5044695;28;20496;-65
2023/08/19 05:41:33;;;;;;;6.00;5.40;;;;;;;22.06;100.00;100699.16;5036245;28;20037;-65
2023/08/19 05:43:59;;;;;;;6.07;5.47;;;;;;;22.00;100.00;100699.97;5038315;28;20040;-67
2023/08/19 05:46:24;;;;;;;5.90;5.25;;;;;;;22.00;100.00;100697.31;5042680;28;20205;-68
2023/08/19 05:48:50;;;;;;;5.93;4.95;;;;;;;22.02;100.00;100694.50;5045575;28;20434;-67
2023/08/19 05:51:15;;;;;;;9.30;5.32;;;;;;;22.09;100.00;100692.59;5039197;28;20116;-67
2023/08/19 05:53:40;;;;;;;5.68;5.18;;;;;;;22.16;100.00;100693.38;5039117;28;20155;-67
2023/08/19 05:56:06;;;;;;;5.70;5.10;;;;;;;22.24;100.00;100700.25;5037276;28;20594;-67
2023/08/19 05:58:33;;;;;;;6.82;5.35;;;;;;;22.32;99.75;100702.63;5048762;28;20047;-67
2023/08/19 06:01:00;;;;;;;5.68;4.90;;;;;;;22.43;99.19;100699.28;5052126;28;20032;-67
2023/08/19 06:03:26;;;;;;;7.28;5.22;;;;;;;22.55;98.47;100694.09;5043526;28;20361;-67
2023/08/19 06:05:51;;;;;;;6.47;4.75;;;;;;;22.59;97.87;100687.31;5036876;28;20044;-68
2023/08/19 06:08:17;;;;;;;5.22;4.72;;;;;;;22.70;97.30;100692.72;5043152;28;20094;-67
2023/08/19 06:10:44;;;;;;;4.90;4.47;;;;;;;22.76;97.17;100699.00;5049202;28;20033;-67
2023/08/19 06:13:13;;;;;;;7.05;4.82;;;;;;;22.77;96.76;100690.81;5043143;28;20032;-67
2023/08/19 06:15:39;;;;;;;8.63;4.60;;;;;;;22.78;96.06;100689.81;5042311;28;20029;-67
2023/08/19 06:18:05;;;;;;;4.32;3.92;;;;;;;22.83;95.93;100707.75;5048615;28;20053;-67
2023/08/19 06:20:30;;;;;;;6.63;4.28;;;;;;;22.90;95.82;100705.03;5057450;28;20106;-67
2023/08/19 06:22:55;;;;;;;7.63;4.90;;;;;;;22.95;95.75;100713.16;5046248;28;20025;-67
2023/08/19 06:25:21;;;;;;;6.68;4.88;;;;;;;22.99;95.13;100709.03;5046429;28;20392;-67
2023/08/19 06:27:46;;;;;;;5.10;4.30;;;;;;;23.08;95.08;100711.19;5037452;28;20646;-67
2023/08/19 06:30:12;;;;;;;7.85;4.70;;;;;;;23.17;94.81;100703.72;5046166;28;20129;-67
2023/08/19 06:32:38;;;;;;;5.60;4.40;;;;;;;23.24;94.44;100708.94;5040710;28;20028;-67
2023/08/19 06:35:04;;;;;;;8.18;4.80;;;;;;;23.32;94.22;100720.09;5046052;28;20547;-67
2023/08/19 06:37:33;;;;;;;5.25;4.22;;;;;;;23.45;92.95;100713.84;5050201;28;20048;-68
2023/08/19 06:40:06;;;;;;;5.57;4.75;;;;;;;23.59;92.66;100720.66;5046347;28;20044;-67
2023/08/19 06:42:34;;;;;;;4.93;4.47;;;;;;;23.67;92.48;100719.50;5043361;28;20510;-68
2023/08/19 06:45:00;;;;;;;4.55;4.15;;;;;;;23.66;92.38;100715.22;5034878;28;20057;-67
2023/08/19 06:47:30;;;;;;;5.65;4.88;;;;;;;23.66;92.03;100725.88;5040654;28;20038;-68
2023/08/19 06:49:55;;;;;;;8.30;3.95;;;;;;;23.66;92.43;100731.19;5041270;28;20146;-67
2023/08/19 06:52:22;;;;;;;4.57;3.95;;;;;;;23.72;92.25;100723.13;5043979;28;20040;-67
2023/08/19 06:54:48;;;;;;;4.43;3.80;;;;;;;23.84;92.31;100728.50;5043381;28;20115;-67
2023/08/19 06:57:29;;;;;;;4.90;4.18;;;;;;;23.93;91.43;100731.66;5038783;28;20098;-68
2023/08/19 07:00:12;;;;;;;5.25;4.45;;;;;;;24.03;90.11;100731.94;5044044;28;20111;-68
2023/08/19 07:02:38;;;;;;;4.05;3.72;;;;;;;24.16;90.03;100732.53;5045492;28;20118;-68
2023/08/19 07:05:16;;;;;;;4.25;3.60;;;;;;;24.24;88.32;100738.56;5055928;28;20043;-69
2023/08/19 07:07:49;;;;;;;5.10;3.97;;;;;;;24.35;88.56;100735.16;5061980;28;20047;-68
2023/08/19 07:10:20;;;;;;;4.18;3.78;;;;;;;24.51;87.08;100736.34;5045648;28;20017;-68
2023/08/19 07:12:46;;;;;;;5.13;4.13;;;;;;;24.63;87.41;100732.66;5048860;28;20029;-68
2023/08/19 07:15:13;;;;;;;3.92;3.60;;;;;;;24.72;86.18;100736.59;5046079;28;20036;-67
2023/08/19 07:17:46;;;;;;;4.78;3.85;;;;;;;24.85;85.26;100740.09;5053183;28;20028;-68
2023/08/19 07:20:15;;;;;;;6.00;3.80;;;;;;;24.98;84.81;100745.22;5044217;28;20480;-68
2023/08/19 07:22:47;;;;;;;4.90;3.08;;;;;;;25.04;83.78;100745.09;5048223;28;20528;-64
2023/08/19 07:25:13;;;;;;;3.63;3.10;;;;;;;25.15;84.05;100743.44;5045162;28;20035;-63
2023/08/19 07:27:39;;;;;;;3.90;3.60;;;;;;;25.19;84.15;100736.59;5047865;28;20488;-63
2023/08/19 07:30:05;;;;;;;5.35;3.38;;;;;;;25.26;84.16;100734.63;5041046;28;20456;-63
2023/08/19 07:32:31;;;;;;;4.07;3.55;;;;;;;25.33;83.27;100737.16;5039387;28;20025;-63
2023/08/19 07:34:57;;;;;;;5.03;3.55;;;;;;;25.33;83.05;100735.31;5047070;28;20570;-63
2023/08/19 07:37:23;;;;;;;4.07;3.67;;;;;;;25.36;82.81;100745.50;5047514;28;20053;-64
2023/08/19 07:39:49;;;;;;;4.13;3.33;;;;;;;25.49;83.13;100741.78;5048547;28;20031;-63
2023/08/19 07:42:15;;;;;;;6.72;3.67;;;;;;;25.65;82.28;100749.06;5054413;28;20035;-63
2023/08/19 07:44:40;;;;;;;5.97;3.53;;;;;;;25.80;81.44;100759.22;5046531;28;20021;-65
2023/08/19 07:47:05;;;;;;;4.82;3.65;;;;;;;25.90;80.07;100755.94;5041674;28;20509;-64
2023/08/19 07:49:31;;;;;;;3.92;3.63;;;;;;;25.97;79.82;100764.63;5043772;28;20124;-61
2023/08/19 07:51:56;;;;;;;3.80;3.47;;;;;;;26.04;78.52;100758.06;5037559;28;20500;-61
2023/08/19 07:54:22;;;;;;;4.22;3.80;;;;;;;26.05;78.82;100762.34;5041966;28;20389;-61
2023/08/19 07:56:48;;;;;;;6.13;4.13;;;;;;;26.22;78.53;100761.59;5048625;28;20043;-61
2023/08/19 07:59:14;;;;;;;3.88;3.58;;;;;;;26.33;77.81;100761.56;5045699;28;20362;-61
2023/08/19 08:01:39;;;;;;;7.00;4.00;;;;;;;26.43;78.11;100766.25;5047293;28;20054;-61
2023/08/19 08:04:05;;;;;;;5.35;4.50;;;;;;;26.47;77.26;100769.25;5043909;28;20024;-61
2023/08/19 08:06:30;;;;;;;3.83;3.53;;;;;;;26.51;77.16;100759.69;5049094;28;20040;-61
2023/08/19 08:08:56;;;;;;;7.93;3.72;;;;;;;26.63;77.13;100758.56;5043608;28;20500;-61
2023/08/19 08:11:21;;;;;;;4.50;3.95;;;;;;;26.71;75.71;100757.34;5053103;28;20103;-61
2023/08/19 08:13:46;;;;;;;3.92;3.33;;;;;;;26.68;76.27;100760.50;5053737;28;20028;-61
2023/08/19 08:16:12;;;;;;;5.15;3.53;;;;;;;26.74;76.43;100749.66;5049512;28;20124;-61
2023/08/19 08:18:37;;;;;;;4.00;3.60;;;;;;;26.97;76.14;100748.66;5052970;28;20029;-61
2023/08/19 08:21:03;;;;;;;4.95;3.60;;;;;;;27.17;76.27;100750.00;5044504;28;20377;-61
2023/08/19 08:23:28;;;;;;;6.97;3.55;;;;;;;27.24;75.72;100750.66;5051311;28;20031;-61
2023/08/19 08:25:54;;;;;;;3.88;3.38;;;;;;;27.42;74.73;100756.47;5041104;28;20025;-60
2023/08/19 08:28:19;;;;;;;4.28;3.88;;;;;;;27.29;74.49;100745.38;5042802;28;20056;-61
2023/08/19 08:30:45;;;;;;;3.75;3.40;;;;;;;27.29;75.02;100751.53;5039186;28;20036;-60
2023/08/19 08:33:11;;;;;;;3.55;3.30;;;;;;;27.33;74.90;100746.50;5047465;28;20043;-60
2023/08/19 08:35:36;;;;;;;4.22;3.55;;;;;;;27.40;73.85;100750.59;5044424;28;20046;-61
2023/08/19 08:38:01;;;;;;;3.60;3.30;;;;;;;27.38;73.35;100747.38;5044782;28;20112;-60
2023/08/19 08:40:30;;;;;;;4.25;3.15;;;;;;;27.37;73.33;100748.41;5038857;28;20033;-60
2023/08/19 08:42:56;;;;;;;3.50;3.20;;;;;;;27.47;74.08;100752.25;5041597;28;20134;-60
2023/08/19 08:45:24;;;;;;;7.10;2.88;;;;;;;27.63;74.22;100751.41;5046047;28;20025;-61
2023/08/19 08:47:51;;;;;;;3.75;3.45;;;;;;;27.65;74.24;100749.31;5044156;28;20032;-60
2023/08/19 08:50:17;;;;;;;4.85;3.22;;;;;;;27.67;73.51;100745.31;5039678;28;20024;-61
2023/08/19 08:52:43;;;;;;;3.60;3.30;;;;;;;27.70;72.69;100752.03;5037867;28;20037;-61
2023/08/19 08:55:09;;;;;;;6.75;4.00;;;;;;;27.67;71.45;100750.66;5044842;28;20036;-61
2023/08/19 08:57:34;;;;;;;4.05;3.67;;;;;;;27.71;71.51;100753.66;5052582;28;20017;-61
2023/08/19 09:00:00;;;;;;;4.63;3.03;;;;;;;27.82;71.78;100747.38;5050616;28;20047;-61
2023/08/19 09:02:28;;;;;;;3.85;3.50;;;;;;;27.80;71.22;100743.31;5051356;28;20032;-61
2023/08/19 09:04:54;;;;;;;3.40;3.10;;;;;;;27.66;70.70;100751.72;5050793;28;20048;-61
2023/08/19 09:07:30;;;;;;;4.97;3.45;;;;;;;27.82;68.13;100752.72;5051360;28;20037;-61
2023/08/19 09:09:58;;;;;;;2.80;2.60;;;;;;;27.97;67.81;100749.38;5050582;28;20098;-61
2023/08/19 09:12:26;;;;;;;2.90;2.70;;;;;;;27.95;68.50;100741.59;5044796;28;20040;-61
2023/08/19 09:14:55;;;;;;;3.10;2.90;;;;;;;27.94;67.43;100745.31;5048197;28;20032;-60
2023/08/19 09:17:21;;;;;;;5.53;2.72;;;;;;;27.86;67.95;100740.44;5051084;28;20153;-60
2023/08/19 09:19:46;;;;;;;3.35;2.78;;;;;;;27.80;66.83;100749.47;5047129;28;20164;-60
2023/08/19 09:22:14;;;;;;;3.15;2.75;;;;;;;27.73;67.19;100755.03;5046059;28;20039;-60
2023/08/19 09:24:40;;;;;;;5.13;2.85;;;;;;;27.66;67.06;100749.06;5033429;28;20034;-60
2023/08/19 09:27:06;;;;;;;6.05;3.13;;;;;;;27.67;66.28;100757.91;5038681;28;20672;-61
2023/08/19 09:29:32;;;;;;;3.97;2.78;;;;;;;27.83;65.03;100753.53;5045019;28;20020;-60
2023/08/19 09:31:58;;;;;;;5.53;2.85;;;;;;;27.89;65.19;100757.84;5043245;28;20492;-60
2023/08/19 09:34:23;;;;;;;3.05;2.70;;;;;;;28.01;64.96;100756.66;5040617;28;20049;-61
2023/08/19 09:36:55;;;;;;;3.08;2.88;;;;;;;27.83;66.02;100751.66;5039565;28;20040;-60
2023/08/19 09:39:23;;;;;;;3.80;2.95;;;;;;;27.67;66.63;100752.53;5038387;28;20071;-60
2023/08/19 09:41:48;;;;;;;4.35;3.28;;;;;;;27.65;66.71;100754.66;5046572;28;20047;-61
2023/08/19 09:44:14;;;;;;;5.25;3.25;;;;;;;27.65;68.33;100760.00;5048062;28;20033;-60
2023/08/19 09:46:42;;;;;;;3.28;3.08;;;;;;;27.76;68.43;100761.75;5043725;28;20028;-61
2023/08/19 09:49:09;;;;;;;2.80;2.60;;;;;;;27.74;67.74;100753.16;5035570;28;20022;-60
2023/08/19 09:51:34;;;;;;;3.72;3.38;;;;;;;27.96;66.37;100753.09;5035350;28;20033;-60
2023/08/19 09:54:10;;;;;;;3.30;3.00;;;;;;;27.98;67.35;100754.47;5041020;28;20491;-61
2023/08/19 09:56:36;;;;;;;5.75;3.33;;;;;;;28.09;67.24;100744.66;5046128;28;20036;-61
2023/08/19 09:59:01;;;;;;;3.25;2.95;;;;;;;28.16;68.24;100747.16;5045163;28;20028;-61
2023/08/19 10:01:27;;;;;;;3.90;3.60;;;;;;;28.12;68.28;100746.03;5039294;28;20449;-61
2023/08/19 10:03:53;;;;;;;5.00;3.33;;;;;;;28.09;68.85;100742.81;5042155;28;20536;-61
2023/08/19 10:06:31;;;;;;;4.32;3.17;;;;;;;28.04;66.09;100742.75;5042298;28;20120;-61
2023/08/19 10:09:05;;;;;;;3.55;3.30;;;;;;;28.20;66.56;100748.25;5037854;28;20038;-61
2023/08/19 10:11:31;;;;;;;4.93;3.47;;;;;;;28.36;66.30;100739.31;5038770;28;20082;-61
2023/08/19 10:14:02;;;;;;;3.35;2.72;;;;;;;28.42;66.46;100747.13;5043752;28;20439;-60
2023/08/19 10:16:35;;;;;;;3.55;3.28;;;;;;;28.56;67.11;100738.66;5037729;28;20076;-61
2023/08/19 10:19:03;;;;;;;3.58;3.28;;;;;;;28.36;67.26;100736.63;5031154;28;20120;-61
2023/08/19 10:21:30;;;;;;;6.32;2.85;;;;;;;28.39;66.70;100742.28;5037729;28;20043;-61
2023/08/19 10:23:58;;;;;;;7.45;3.17;;;;;;;28.54;65.79;100741.59;5037586;28;20044;-61
2023/08/19 10:26:23;;;;;;;4.85;3.42;;;;;;;28.56;65.39;100735.97;5045252;28;20054;-61
2023/08/19 10:29:07;;;;;;;3.58;3.28;;;;;;;28.45;65.53;100739.66;5049518;28;20392;-62
2023/08/19 10:31:34;;;;;;;3.45;3.15;;;;;;;28.31;68.04;100737.41;5056058;28;20114;-61
2023/08/19 10:34:10;;;;;;;3.35;3.05;;;;;;;28.33;67.40;100734.47;5038936;28;20049;-61
2023/08/19 10:36:35;;;;;;;4.72;3.53;;;;;;;28.28;68.45;100732.56;5049198;28;20048;-61
2023/08/19 10:39:01;;;;;;;3.70;3.40;;;;;;;28.23;68.96;100734.38;5046994;28;20076;-61
2023/08/19 10:41:35;;;;;;;5.25;3.28;;;;;;;28.30;67.78;100730.44;5049835;28;20090;-67
2023/08/19 10:44:06;;;;;;;3.60;3.30;;;;;;;28.38;67.92;100731.81;5045096;28;20037;-61
2023/08/19 10:46:37;;;;;;;2.85;2.63;;;;;;;28.36;67.70;100728.59;5041402;28;20032;-61
2023/08/19 10:49:14;;;;;;;2.45;2.28;;;;;;;28.40;66.72;100733.19;5044123;28;20116;-61
2023/08/19 10:52:00;;;;;;;3.28;3.05;;;;;;;28.40;66.82;100727.00;5040451;28;20108;-61
2023/08/19 10:54:40;;;;;;;5.95;2.88;;;;;;;28.51;66.30;100726.03;5041286;28;20044;-61
2023/08/19 10:57:11;;;;;;;3.50;3.20;;;;;;;28.68;65.23;100724.03;5050336;28;20150;-61
2023/08/19 10:59:38;;;;;;;3.28;2.97;;;;;;;28.82;64.33;100726.28;5043269;28;20037;-61
2023/08/19 11:02:08;;;;;;;4.85;3.28;;;;;;;29.01;63.94;100719.41;5040247;28;20575;-61
2023/08/19 11:04:36;;;;;;;4.15;3.30;;;;;;;28.95;64.50;100715.06;5044140;28;20093;-61
2023/08/19 11:07:04;;;;;;;4.72;2.95;;;;;;;28.99;63.83;100716.97;5041614;28;20029;-61
2023/08/19 11:09:30;;;;;;;4.40;3.30;;;;;;;28.94;65.68;100716.16;5042984;28;20457;-61
2023/08/19 11:11:58;;;;;;;3.05;2.85;;;;;;;28.85;66.72;100709.66;5046717;28;20098;-61
2023/08/19 11:14:24;;;;;;;3.22;2.92;;;;;;;28.82;66.25;100716.38;5039155;28;20029;-61
2023/08/19 11:16:55;;;;;;;3.05;2.15;;;;;;;28.81;65.03;100714.72;5049604;28;20032;-61
2023/08/19 11:19:21;;;;;;;4.07;2.75;;;;;;;28.98;65.50;100711.88;5046540;28;20047;-62
2023/08/19 11:21:47;;;;;;;3.40;3.10;;;;;;;29.05;65.49;100715.13;5043996;28;20040;-61